RKSO

Osan Air Base Airport

South Korea
TAF RKSO 251100Z 2511/2617 26009KT 9999 SKC QNH2985INS BECMG 2515/2516 VRB06KT 6000 BR SKC QNH2989INS BECMG 2600/2601 28009KT 9999 NSW FEW200 QNH2992INS TX22/2606Z TN07/2521Z
Issued Valid From Valid To
Apr-25 @ 11:00 UTC
(7 hours ago)
Apr-25 @ 11:00 UTC
(7 hours ago)
Apr-26 @ 17:00 UTC
(in 23 hours)
Expired Click to View Apr-25 @ 11:00 to Apr-25 @ 15:00
TAF RKSO 251100Z 2511/2617 26009KT 9999 SKC QNH2985INS
Wind Visibility Clouds Readings
260° at 9 knots 10,000+ meters
  • Clear skies
Altimeter 29.85" Hg
Pressure 1011 hPa
Becoming Apr-25 @ 15:00 to Apr-26 @ 00:00
BECMG 2515/2516 VRB06KT 6000 BR SKC QNH2989INS
Wind Visibility Clouds Conditions Readings
Variable at 6 knots 6,003 meters
  • Clear skies
  • Mist
Altimeter 29.88" Hg
Pressure 1012 hPa
Becoming Apr-26 @ 00:00 to Apr-26 @ 17:00
BECMG 2600/2601 28009KT 9999 NSW FEW200 QNH2992INS TX22/2606Z TN07/2521Z
Wind Visibility Clouds Conditions Readings
280° at 9 knots 10,000+ meters
  • Few at 20,000' AGL
Altimeter 29.91" Hg
Pressure 1013 hPa
TAF RKSO 251100Z 2511/2617 26009KT 9999 SKC QNH2985INS BECMG 2515/2516 VRB06KT 6000 BR SKC QNH2989INS BECMG 2600/2601 28009KT 9999 NSW FEW200 QNH2992INS TX22/2606Z TN07/2521Z
Issued Apr-25 @ 11:00 UTC
(7 hours ago)
Valid From Apr-25 @ 11:00 UTC
(7 hours ago)
Valid To Apr-26 @ 17:00 UTC
(in 23 hours)
Apr-25 @ 11:00 - Apr-25 @ 15:00
Wind Visibility
260° at 9 knots 10,000+ meters
Clouds
  • Clear skies
Becoming Apr-25 @ 15:00 - Apr-26 @ 00:00
Wind Visibility
Variable at 6 knots 6,003 meters
Clouds
  • Clear skies
Conditions
  • Mist
Becoming Apr-26 @ 00:00 - Apr-26 @ 17:00
Wind Visibility
280° at 9 knots 10,000+ meters
Clouds
  • Few at 20,000' AGL
Conditions